Time;durP1;ratioP1;P1;durP2;ratioP2;P2;SDS_P1;SDS_P2;PMS_P1;PMS_P2;Temp;Humidity;BMP_temperature;BMP_pressure;BME280_temperature;BME280_humidity;BME280_pressure;Samples;Min_cycle;Max_cycle;Signal;HPM_P1;HPM_P2
2022/09/15 00:01:39;;;;;;;2.05;0.90;;;16.50;99.90;;;;;;6233128;22;20015;-82
2022/09/15 00:04:06;;;;;;;1.73;0.60;;;16.00;99.90;;;;;;6243044;22;20172;-82
2022/09/15 00:06:33;;;;;;;2.13;0.80;;;16.50;99.90;;;;;;6244411;22;20544;-82
2022/09/15 00:08:58;;;;;;;2.50;0.90;;;16.50;99.90;;;;;;6242076;22;20015;-83
2022/09/15 00:11:29;;;;;;;3.20;0.70;;;16.60;99.90;;;;;;6242666;22;20026;-81
2022/09/15 00:13:59;;;;;;;4.22;0.82;;;16.50;99.90;;;;;;6243128;22;20026;-81
2022/09/15 00:16:26;;;;;;;2.30;0.65;;;16.60;99.90;;;;;;6242128;22;20437;-82
2022/09/15 00:18:53;;;;;;;2.28;0.70;;;16.60;99.90;;;;;;6241556;22;20050;-81
2022/09/15 00:21:22;;;;;;;2.47;0.70;;;16.60;99.90;;;;;;6267952;22;20505;-80
2022/09/15 00:23:48;;;;;;;3.47;1.08;;;16.60;99.90;;;;;;6242042;22;20096;-81
2022/09/15 00:26:17;;;;;;;2.33;0.75;;;16.50;99.90;;;;;;6241158;22;20020;-82
2022/09/15 00:28:43;;;;;;;3.90;0.90;;;16.50;99.90;;;;;;6241747;22;20023;-81
2022/09/15 00:31:12;;;;;;;4.18;0.80;;;16.60;99.90;;;;;;6243300;22;20015;-80
2022/09/15 00:33:38;;;;;;;3.78;0.80;;;16.60;99.90;;;;;;6242477;22;20061;-81
2022/09/15 00:36:07;;;;;;;3.05;1.25;;;16.50;99.90;;;;;;6243337;22;20019;-82
2022/09/15 00:38:34;;;;;;;2.08;0.90;;;16.50;99.90;;;;;;6241896;22;20050;-81
2022/09/15 00:41:01;;;;;;;3.10;1.00;;;16.60;99.90;;;;;;6268795;22;20022;-80
2022/09/15 00:43:50;;;;;;;3.65;0.70;;;16.50;99.90;;;;;;6268183;22;20416;-82
2022/09/15 00:46:27;;;;;;;4.60;0.80;;;16.50;99.90;;;;;;6243263;22;20019;-80
2022/09/15 00:49:11;;;;;;;4.78;0.75;;;16.60;99.90;;;;;;6266412;22;20011;-81
2022/09/15 00:52:01;;;;;;;4.10;1.30;;;16.60;99.90;;;;;;6268520;22;20015;-80
2022/09/15 00:54:39;;;;;;;7.57;1.58;;;16.60;99.90;;;;;;6244488;22;20025;-81
2022/09/15 00:57:10;;;;;;;8.88;1.73;;;16.60;99.90;;;;;;6274039;22;20011;-80
2022/09/15 00:59:38;;;;;;;5.00;1.23;;;16.50;99.90;;;;;;6246149;22;20050;-80
2022/09/15 01:02:11;;;;;;;6.63;1.27;;;16.50;99.90;;;;;;6193784;22;20028;-81
2022/09/15 01:04:36;;;;;;;4.60;1.25;;;16.50;99.90;;;;;;6216427;22;20020;-81
2022/09/15 01:07:06;;;;;;;5.70;1.50;;;16.40;99.90;;;;;;6190168;22;20027;-81
2022/09/15 01:09:47;;;;;;;6.30;1.20;;;16.40;99.90;;;;;;6240267;22;20065;-84
2022/09/15 01:12:12;;;;;;;4.07;1.17;;;16.30;99.90;;;;;;6214244;22;20029;-82
2022/09/15 01:14:38;;;;;;;3.60;1.10;;;16.30;99.90;;;;;;6187792;22;20106;-81
2022/09/15 01:17:09;;;;;;;3.28;1.00;;;16.20;99.90;;;;;;6214934;22;20024;-82
2022/09/15 01:19:37;;;;;;;4.63;1.40;;;16.20;99.90;;;;;;6212688;22;20094;-82
2022/09/15 01:22:51;;;;;;;4.18;1.20;;;16.20;99.90;;;;;;6213839;22;20073;-82
2022/09/15 01:25:38;;;;;;;3.50;1.00;;;16.20;99.90;;;;;;6094091;23;20489;-81
2022/09/15 01:28:44;;;;;;;5.85;1.33;;;16.20;99.90;;;;;;6213169;22;20455;-82
2022/09/15 01:33:02;;;;;;;4.25;0.90;;;16.20;99.90;;;;;;6214516;22;20135;-82
2022/09/15 01:34:28;;;;;;;3.72;0.95;;;16.20;99.90;;;;;;6238654;22;20028;-82
2022/09/15 01:37:00;;;;;;;4.40;1.00;;;16.20;99.90;;;;;;6213988;22;20455;-82
2022/09/15 01:39:32;;;;;;;4.10;1.20;;;16.20;99.90;;;;;;6238287;22;20024;-82
2022/09/15 01:42:05;;;;;;;4.40;1.13;;;16.20;99.90;;;;;;6214147;22;20023;-81
2022/09/15 01:44:54;;;;;;;5.88;1.45;;;16.20;99.90;;;;;;6213162;22;20460;-82
2022/09/15 01:47:21;;;;;;;4.03;1.13;;;16.20;99.90;;;;;;6238717;22;20016;-81
2022/09/15 01:50:02;;;;;;;5.38;1.30;;;16.20;99.90;;;;;;6238289;22;20707;-82
2022/09/15 01:52:32;;;;;;;5.90;1.35;;;16.20;99.90;;;;;;6239263;22;20099;-82
2022/09/15 01:55:02;;;;;;;6.25;1.48;;;16.20;99.90;;;;;;6188111;22;20030;-82
2022/09/15 01:57:28;;;;;;;8.48;1.33;;;16.30;99.90;;;;;;6215782;22;20077;-81
2022/09/15 01:59:55;;;;;;;7.78;1.13;;;16.30;99.90;;;;;;6215643;22;20486;-81
2022/09/15 02:03:07;;;;;;;7.03;1.48;;;16.30;99.90;;;;;;6213199;22;20043;-81
2022/09/15 02:05:47;;;;;;;7.60;1.20;;;16.80;99.90;;;;;;6188289;22;20090;-83
2022/09/15 02:08:27;;;;;;;5.53;1.42;;;16.20;99.90;;;;;;6214257;22;20015;-82
2022/09/15 02:11:12;;;;;;;5.50;1.48;;;16.20;99.90;;;;;;6213295;22;20011;-82
2022/09/15 02:13:47;;;;;;;5.47;1.15;;;16.20;99.90;;;;;;6238510;22;20042;-82
2022/09/15 02:16:24;;;;;;;4.18;1.42;;;16.20;99.90;;;;;;6238900;22;20020;-81
2022/09/15 02:19:03;;;;;;;6.28;1.33;;;16.20;99.90;;;;;;6212134;22;20055;-82
2022/09/15 02:21:43;;;;;;;7.07;1.45;;;16.30;99.90;;;;;;6237685;22;20020;-82
2022/09/15 02:24:17;;;;;;;7.40;1.42;;;16.20;99.90;;;;;;6238456;22;20026;-82
2022/09/15 02:26:47;;;;;;;8.35;1.65;;;16.30;99.90;;;;;;6214281;22;20028;-82
2022/09/15 02:29:17;;;;;;;4.90;1.00;;;16.30;99.90;;;;;;6212333;22;20042;-82
2022/09/15 02:31:45;;;;;;;3.50;0.98;;;16.30;99.90;;;;;;6213107;22;20020;-81
2022/09/15 02:34:19;;;;;;;5.70;1.33;;;16.30;99.90;;;;;;6238709;22;20028;-82
2022/09/15 02:36:47;;;;;;;5.53;1.38;;;16.30;99.90;;;;;;6238231;22;20051;-82
2022/09/15 02:39:16;;;;;;;3.67;1.15;;;16.30;99.90;;;;;;6215586;22;20020;-82
2022/09/15 02:41:42;;;;;;;4.90;1.15;;;16.20;99.90;;;;;;6239715;22;20378;-82
2022/09/15 02:44:08;;;;;;;3.85;1.27;;;16.30;99.90;;;;;;6212765;22;20023;-81
2022/09/15 02:46:35;;;;;;;4.35;0.90;;;16.30;99.90;;;;;;6213264;22;20149;-81
2022/09/15 02:49:01;;;;;;;4.88;1.00;;;16.30;99.90;;;;;;6211488;22;20024;-82
2022/09/15 02:51:27;;;;;;;4.00;1.02;;;16.30;99.90;;;;;;6213890;22;20080;-81
2022/09/15 02:53:53;;;;;;;5.07;1.05;;;16.30;99.90;;;;;;6186780;22;20497;-82
2022/09/15 02:56:19;;;;;;;5.88;1.58;;;16.30;99.90;;;;;;6215903;22;20012;-81
2022/09/15 02:58:45;;;;;;;3.88;1.23;;;16.30;99.90;;;;;;6236722;22;20069;-82
2022/09/15 03:01:16;;;;;;;4.93;1.13;;;16.30;99.90;;;;;;6187240;22;20800;-81
2022/09/15 03:03:43;;;;;;;5.55;1.15;;;16.30;99.90;;;;;;6164564;22;20073;-82
2022/09/15 03:06:16;;;;;;;6.10;1.20;;;16.30;99.90;;;;;;6214044;22;20030;-81
2022/09/15 03:08:53;;;;;;;3.70;1.10;;;16.70;99.90;;;;;;6214259;22;20023;-82
2022/09/15 03:11:21;;;;;;;9.07;1.33;;;16.40;99.90;;;;;;6214470;22;20023;-82
2022/09/15 03:13:47;;;;;;;6.13;1.17;;;16.30;99.90;;;;;;6237936;22;20019;-81
2022/09/15 03:16:14;;;;;;;3.63;1.20;;;16.40;99.90;;;;;;6213531;22;20073;-82
2022/09/15 03:18:40;;;;;;;5.70;1.05;;;16.40;99.90;;;;;;6189445;22;20015;-82
2022/09/15 03:21:09;;;;;;;3.78;1.00;;;16.40;99.90;;;;;;6187985;22;20015;-82
2022/09/15 03:23:35;;;;;;;7.22;1.25;;;16.40;99.90;;;;;;6212746;22;20019;-82
2022/09/15 03:26:01;;;;;;;12.73;1.60;;;16.30;99.90;;;;;;6214103;22;20100;-81
2022/09/15 03:28:27;;;;;;;6.93;1.52;;;16.30;99.90;;;;;;6237349;22;20024;-82
2022/09/15 03:30:54;;;;;;;6.15;1.52;;;16.30;99.90;;;;;;6212676;22;20027;-81
2022/09/15 03:33:21;;;;;;;7.05;1.58;;;16.30;99.90;;;;;;6239726;22;20016;-80
2022/09/15 03:35:48;;;;;;;4.57;1.35;;;16.30;99.90;;;;;;6189161;22;20797;-81
2022/09/15 03:38:15;;;;;;;3.95;1.23;;;16.20;99.90;;;;;;6213302;22;20015;-81
2022/09/15 03:40:44;;;;;;;4.35;1.08;;;16.20;99.90;;;;;;6188311;22;20026;-81
2022/09/15 03:43:11;;;;;;;4.43;1.20;;;16.20;99.90;;;;;;6213148;22;20217;-82
2022/09/15 03:45:38;;;;;;;4.15;1.10;;;16.20;99.90;;;;;;6239214;22;20020;-81
2022/09/15 03:48:04;;;;;;;4.40;1.10;;;16.20;99.90;;;;;;6212842;22;20015;-82
2022/09/15 03:50:31;;;;;;;5.07;0.93;;;16.20;99.90;;;;;;6188111;22;20100;-81
2022/09/15 03:53:00;;;;;;;4.15;1.13;;;16.20;99.90;;;;;;6212888;22;20304;-82
2022/09/15 03:55:27;;;;;;;2.33;0.98;;;16.10;99.90;;;;;;6213158;22;20019;-81
2022/09/15 03:57:53;;;;;;;4.45;0.88;;;15.50;99.90;;;;;;6186939;22;20024;-81
2022/09/15 04:00:19;;;;;;;3.80;1.08;;;16.10;99.90;;;;;;6217332;22;20019;-82
2022/09/15 04:02:45;;;;;;;3.22;1.10;;;16.10;99.90;;;;;;6218086;22;20342;-82
2022/09/15 04:05:12;;;;;;;3.08;0.93;;;16.20;99.90;;;;;;6269984;22;20026;-81
2022/09/15 04:07:39;;;;;;;6.45;1.40;;;16.10;99.90;;;;;;6220008;22;20019;-82
2022/09/15 04:10:06;;;;;;;3.30;1.10;;;16.10;99.90;;;;;;6217142;22;20520;-81
2022/09/15 04:12:33;;;;;;;4.30;0.90;;;16.10;99.90;;;;;;6192761;22;20015;-82
2022/09/15 04:14:59;;;;;;;4.80;1.40;;;16.10;99.90;;;;;;6218527;22;20098;-81
2022/09/15 04:17:25;;;;;;;3.88;1.00;;;16.10;99.90;;;;;;6271424;22;20012;-81
2022/09/15 04:19:54;;;;;;;4.28;1.10;;;16.10;99.90;;;;;;6219575;22;20446;-82
2022/09/15 04:22:20;;;;;;;3.95;1.17;;;16.10;99.90;;;;;;6243556;22;20022;-82
2022/09/15 04:24:49;;;;;;;6.00;1.10;;;16.10;99.90;;;;;;6268594;22;20089;-82
2022/09/15 04:27:16;;;;;;;5.10;1.10;;;16.10;99.90;;;;;;6269189;22;20042;-81
2022/09/15 04:29:42;;;;;;;7.75;1.30;;;16.10;99.90;;;;;;6244448;22;20102;-81
2022/09/15 04:32:08;;;;;;;6.30;1.13;;;16.10;99.90;;;;;;6271916;22;20545;-82
2022/09/15 04:34:34;;;;;;;5.90;1.13;;;16.10;99.90;;;;;;6197862;22;20517;-81
2022/09/15 04:37:01;;;;;;;5.55;1.60;;;16.20;99.90;;;;;;6247219;22;20054;-82
2022/09/15 04:39:27;;;;;;;5.38;1.30;;;16.20;99.90;;;;;;6272539;22;20019;-82
2022/09/15 04:41:53;;;;;;;4.78;1.25;;;16.20;99.90;;;;;;6271681;22;20023;-81
2022/09/15 04:44:19;;;;;;;4.15;1.20;;;16.20;99.90;;;;;;6219839;22;20458;-82
2022/09/15 04:46:45;;;;;;;6.05;1.73;;;16.10;99.90;;;;;;6246205;22;20065;-81
2022/09/15 04:49:10;;;;;;;4.97;1.30;;;16.10;99.90;;;;;;6269832;22;20029;-81
2022/09/15 04:51:37;;;;;;;6.50;1.55;;;16.20;99.90;;;;;;6246063;22;20015;-81
2022/09/15 04:54:03;;;;;;;6.82;1.65;;;16.20;99.90;;;;;;6246602;22;20019;-82
2022/09/15 04:56:28;;;;;;;7.10;1.10;;;16.20;99.90;;;;;;6221918;22;20465;-82
2022/09/15 04:58:58;;;;;;;7.57;1.77;;;16.10;99.90;;;;;;6221409;22;20450;-82
2022/09/15 05:01:26;;;;;;;7.10;1.50;;;16.10;99.90;;;;;;6228275;22;20192;-81
2022/09/15 05:03:53;;;;;;;5.80;1.98;;;16.20;99.90;;;;;;6239294;22;20047;-81
2022/09/15 05:06:21;;;;;;;6.97;1.20;;;16.10;99.90;;;;;;6216044;22;20773;-81
2022/09/15 05:08:49;;;;;;;5.28;1.10;;;16.10;99.90;;;;;;6216582;22;20430;-82
2022/09/15 05:11:15;;;;;;;9.05;1.67;;;16.20;99.90;;;;;;6214449;22;20019;-81
2022/09/15 05:13:41;;;;;;;4.93;1.40;;;16.20;99.90;;;;;;6243294;22;20020;-81
2022/09/15 05:16:19;;;;;;;5.10;1.60;;;16.20;99.90;;;;;;6167837;22;20020;-81
2022/09/15 05:18:47;;;;;;;4.63;1.00;;;16.10;99.90;;;;;;6215909;22;20820;-81
2022/09/15 05:21:14;;;;;;;4.25;1.10;;;16.10;99.90;;;;;;6241642;22;20015;-81
2022/09/15 05:23:40;;;;;;;3.85;1.10;;;16.10;99.90;;;;;;6216777;22;20038;-81
2022/09/15 05:26:19;;;;;;;6.47;1.20;;;16.10;99.90;;;;;;6242083;22;20022;-81
2022/09/15 05:28:45;;;;;;;9.02;1.52;;;16.10;99.90;;;;;;6239785;22;20650;-82
2022/09/15 05:31:24;;;;;;;6.65;1.15;;;16.10;99.90;;;;;;6213828;22;20027;-81
2022/09/15 05:33:51;;;;;;;2.97;0.95;;;16.10;99.90;;;;;;6241957;22;20027;-81
2022/09/15 05:36:20;;;;;;;2.90;0.90;;;16.10;99.90;;;;;;6242655;22;20087;-81
2022/09/15 05:38:45;;;;;;;1.85;0.80;;;16.10;99.90;;;;;;6241034;22;20015;-81
2022/09/15 05:41:16;;;;;;;3.05;0.70;;;16.10;99.90;;;;;;6240345;22;20607;-81
2022/09/15 05:43:44;;;;;;;3.90;0.80;;;16.10;99.90;;;;;;6217540;22;20029;-81
2022/09/15 05:46:10;;;;;;;5.03;0.90;;;16.10;99.90;;;;;;6216185;22;20019;-81
2022/09/15 05:48:36;;;;;;;4.07;0.93;;;16.10;99.90;;;;;;6166460;22;20023;-80
2022/09/15 05:51:02;;;;;;;5.53;1.20;;;16.10;99.90;;;;;;6215404;22;20349;-80
2022/09/15 05:53:29;;;;;;;6.32;0.90;;;16.10;99.90;;;;;;6214042;22;20016;-81
2022/09/15 05:56:01;;;;;;;4.03;0.95;;;16.20;99.90;;;;;;6238681;22;20026;-81
2022/09/15 05:58:29;;;;;;;3.83;1.00;;;16.10;99.90;;;;;;6241003;22;20068;-81
2022/09/15 06:00:56;;;;;;;4.10;0.80;;;16.20;99.90;;;;;;6228970;22;20020;-83
2022/09/15 06:03:22;;;;;;;4.65;1.10;;;16.20;99.90;;;;;;6272885;22;20027;-82
2022/09/15 06:05:58;;;;;;;3.67;0.93;;;16.20;99.90;;;;;;6273231;22;20058;-82
2022/09/15 06:08:24;;;;;;;4.88;1.20;;;16.20;99.90;;;;;;6246457;22;20047;-82
2022/09/15 06:10:49;;;;;;;4.90;1.25;;;16.20;99.90;;;;;;6221275;22;20573;-80
2022/09/15 06:13:15;;;;;;;3.25;1.10;;;16.30;99.90;;;;;;6247794;22;20049;-79
2022/09/15 06:15:41;;;;;;;5.68;1.00;;;16.20;99.90;;;;;;6247362;22;20450;-81
2022/09/15 06:18:07;;;;;;;6.40;1.13;;;16.20;99.90;;;;;;6221101;22;20016;-84
2022/09/15 06:20:33;;;;;;;5.20;1.27;;;16.20;99.90;;;;;;6222170;22;20525;-82
2022/09/15 06:22:59;;;;;;;7.68;1.38;;;16.30;99.90;;;;;;6246255;22;20012;-83
2022/09/15 06:25:25;;;;;;;5.80;1.38;;;16.30;99.90;;;;;;6221572;22;20034;-83
2022/09/15 06:27:51;;;;;;;6.60;1.20;;;16.30;99.90;;;;;;6221507;22;20085;-82
2022/09/15 06:30:17;;;;;;;4.93;1.15;;;16.30;99.90;;;;;;6271541;22;20026;-82
2022/09/15 06:32:42;;;;;;;4.43;1.25;;;16.30;99.90;;;;;;6272455;22;20334;-83
2022/09/15 06:35:08;;;;;;;4.00;1.20;;;16.20;99.90;;;;;;6244882;22;20106;-83
2022/09/15 06:37:34;;;;;;;5.03;1.10;;;16.30;99.90;;;;;;6246939;22;20016;-83
2022/09/15 06:40:00;;;;;;;6.13;1.05;;;16.30;99.90;;;;;;6246156;22;20015;-84
2022/09/15 06:42:26;;;;;;;5.15;1.00;;;16.20;99.90;;;;;;6247306;22;20073;-83
2022/09/15 06:44:53;;;;;;;5.50;1.20;;;16.10;99.90;;;;;;6272272;22;20097;-83
2022/09/15 06:47:19;;;;;;;7.68;1.60;;;16.10;99.90;;;;;;6249254;22;20019;-83
2022/09/15 06:49:44;;;;;;;6.80;1.30;;;16.00;99.90;;;;;;6275706;22;20015;-83
2022/09/15 06:52:10;;;;;;;4.10;1.30;;;15.90;99.90;;;;;;6225262;22;20030;-83
2022/09/15 06:54:37;;;;;;;5.57;1.48;;;15.30;99.90;;;;;;6224981;22;20091;-82
2022/09/15 06:57:03;;;;;;;2.22;0.70;;;15.80;99.90;;;;;;6274165;22;20450;-83
2022/09/15 06:59:35;;;;;;;5.35;1.23;;;15.90;99.90;;;;;;6224980;22;20026;-83
2022/09/15 07:02:01;;;;;;;3.45;1.27;;;15.80;99.90;;;;;;6223010;22;20019;-82
2022/09/15 07:04:30;;;;;;;3.72;1.27;;;15.80;99.90;;;;;;6218615;22;20105;-83
2022/09/15 07:06:56;;;;;;;6.22;1.55;;;15.50;99.90;;;;;;6191634;22;20031;-82
2022/09/15 07:09:24;;;;;;;9.90;1.80;;;15.90;99.90;;;;;;6189408;22;20016;-83
2022/09/15 07:11:50;;;;;;;6.53;1.90;;;16.80;99.90;;;;;;6216118;22;20463;-84
2022/09/15 07:14:15;;;;;;;6.15;1.50;;;15.90;99.90;;;;;;6214832;22;20039;-82
2022/09/15 07:16:41;;;;;;;8.48;1.13;;;16.20;99.90;;;;;;6238984;22;20047;-82
2022/09/15 07:19:07;;;;;;;3.72;1.10;;;16.00;99.90;;;;;;6212838;22;20150;-83
2022/09/15 07:21:33;;;;;;;3.72;0.95;;;16.00;99.90;;;;;;6217436;22;20051;-83
2022/09/15 07:23:58;;;;;;;4.30;1.20;;;15.20;99.90;;;;;;6217059;22;20077;-83
2022/09/15 07:26:29;;;;;;;5.00;1.38;;;16.20;99.90;;;;;;6216997;22;20076;-83
2022/09/15 07:28:58;;;;;;;5.95;1.20;;;16.30;99.90;;;;;;6217282;22;20043;-82
2022/09/15 07:31:27;;;;;;;3.33;1.08;;;16.40;99.90;;;;;;6219253;22;20015;-83
2022/09/15 07:33:53;;;;;;;5.20;1.20;;;16.40;99.90;;;;;;6219788;22;20024;-84
2022/09/15 07:36:19;;;;;;;4.78;1.20;;;16.50;99.90;;;;;;6218973;22;20160;-81
2022/09/15 07:38:47;;;;;;;5.22;1.30;;;16.80;99.90;;;;;;6193930;22;20020;-83
2022/09/15 07:41:15;;;;;;;6.53;1.50;;;16.90;99.90;;;;;;6244296;22;20015;-82
2022/09/15 07:43:46;;;;;;;7.40;1.30;;;17.00;99.90;;;;;;6219497;22;20024;-82
2022/09/15 07:46:12;;;;;;;4.55;1.00;;;16.90;99.90;;;;;;6218829;22;20024;-82
2022/09/15 07:48:37;;;;;;;4.65;1.15;;;16.90;99.90;;;;;;6219218;22;20028;-83
2022/09/15 07:51:03;;;;;;;5.28;1.10;;;16.90;99.90;;;;;;6219178;22;20015;-83
2022/09/15 07:53:29;;;;;;;4.63;1.20;;;16.90;99.90;;;;;;6195181;22;20020;-83
2022/09/15 07:55:56;;;;;;;2.45;0.90;;;17.00;99.90;;;;;;6219625;22;20023;-83
2022/09/15 07:58:22;;;;;;;5.97;1.10;;;17.20;99.90;;;;;;6218993;22;20051;-82
2022/09/15 08:00:51;;;;;;;5.68;0.90;;;17.80;99.90;;;;;;6257582;22;20011;-87
2022/09/15 08:03:17;;;;;;;2.67;1.20;;;17.50;99.90;;;;;;6249403;22;20034;-86
2022/09/15 08:05:43;;;;;;;4.88;1.05;;;17.70;99.90;;;;;;6276172;22;20038;-86
2022/09/15 08:08:11;;;;;;;2.67;0.90;;;17.60;99.90;;;;;;6249392;22;20438;-86
2022/09/15 08:10:40;;;;;;;4.22;1.10;;;17.60;99.90;;;;;;6249730;22;20026;-87
2022/09/15 08:13:06;;;;;;;4.82;1.10;;;17.50;99.90;;;;;;6249268;22;20316;-86
2022/09/15 08:15:35;;;;;;;4.90;1.20;;;17.50;99.90;;;;;;6250073;22;20023;-87
2022/09/15 08:18:08;;;;;;;5.20;1.10;;;17.50;99.90;;;;;;6274082;22;20098;-87
2022/09/15 08:20:36;;;;;;;2.92;0.77;;;17.50;99.90;;;;;;6249918;22;20098;-86
2022/09/15 08:23:02;;;;;;;3.33;1.08;;;17.50;99.90;;;;;;6250401;22;20053;-86
2022/09/15 08:25:29;;;;;;;3.53;0.90;;;17.50;99.90;;;;;;6250161;22;20019;-87
2022/09/15 08:28:00;;;;;;;5.07;1.13;;;17.40;99.90;;;;;;6250219;22;20050;-87
2022/09/15 08:30:26;;;;;;;4.63;0.90;;;17.50;99.90;;;;;;6250134;22;20011;-86
2022/09/15 08:32:52;;;;;;;3.72;1.00;;;17.50;99.90;;;;;;6276308;22;20016;-87
2022/09/15 08:35:19;;;;;;;2.83;1.10;;;16.90;99.90;;;;;;6250503;22;20023;-86
2022/09/15 08:37:57;;;;;;;;;;;;;;;;;;;;;
2022/09/15 08:40:36;;;;;;;4.65;1.08;;;17.40;99.90;;;;;;6230784;22;20026;-85
2022/09/15 08:46:06;;;;;;;1.80;0.73;;;18.20;99.90;;;;;;6276769;22;20061;-86
2022/09/15 08:48:55;;;;;;;3.45;0.80;;;18.60;99.90;;;;;;6276209;22;20015;-85
2022/09/15 08:51:32;;;;;;;5.35;1.10;;;18.50;99.90;;;;;;6276382;22;20077;-86
2022/09/15 08:54:11;;;;;;;5.20;1.05;;;18.40;99.90;;;;;;6250698;22;20041;-86
2022/09/15 08:56:42;;;;;;;2.70;0.90;;;19.20;99.90;;;;;;6249742;22;20098;-86
2022/09/15 08:59:15;;;;;;;3.35;0.73;;;18.10;99.90;;;;;;6248316;22;20098;-85
2022/09/15 09:01:55;;;;;;;4.80;0.82;;;18.10;99.90;;;;;;6226617;22;20015;-85
2022/09/15 09:04:48;;;;;;;7.65;1.10;;;18.10;99.90;;;;;;6244962;22;20020;-89
2022/09/15 09:07:43;;;;;;;2.92;0.90;;;18.10;99.90;;;;;;6220741;22;20111;-88
2022/09/15 09:10:18;;;;;;;7.40;1.45;;;18.20;99.90;;;;;;6245127;22;20019;-86
2022/09/15 09:12:44;;;;;;;;;;;18.60;99.90;;;;;;6246327;22;20058;-87
2022/09/15 09:16:30;;;;;;;;;;;;;;;;;;;;;
2022/09/15 09:26:54;;;;;;;7.10;1.60;;;20.10;99.90;;;;;;6227729;22;20023;-90
2022/09/15 09:30:21;;;;;;;;;;;;;;;;;;;;;
2022/09/15 09:33:45;;;;;;;7.13;1.30;;;19.10;99.90;;;;;;6205745;22;20020;-90
2022/09/15 09:36:17;;;;;;;4.78;1.05;;;19.10;99.90;;;;;;6202850;22;20098;-91
2022/09/15 09:42:30;;;;;;;4.10;0.95;;;18.70;99.90;;;;;;6231170;22;20435;-86
2022/09/15 09:44:56;;;;;;;3.45;1.42;;;19.20;99.90;;;;;;6220914;22;20100;-84
2022/09/15 09:47:30;;;;;;;4.18;1.17;;;19.20;99.90;;;;;;6221139;22;20019;-85
2022/09/15 09:49:58;;;;;;;3.97;1.20;;;19.10;99.90;;;;;;6221407;22;20016;-86
2022/09/15 09:52:39;;;;;;;5.97;1.10;;;19.60;99.90;;;;;;6245835;22;20016;-86
2022/09/15 09:55:40;;;;;;;3.83;0.75;;;19.50;99.90;;;;;;6246069;22;20343;-84
2022/09/15 09:58:23;;;;;;;3.00;0.90;;;19.90;99.90;;;;;;6101834;22;20029;-87
2022/09/15 10:00:55;;;;;;;3.83;1.23;;;20.10;99.90;;;;;;6220255;22;20020;-86
2022/09/15 10:03:29;;;;;;;4.15;1.20;;;20.60;99.90;;;;;;6243854;22;20032;-87
2022/09/15 10:06:23;;;;;;;2.67;1.05;;;20.50;99.90;;;;;;6218645;22;20019;-85
2022/09/15 10:08:56;;;;;;;1.65;0.75;;;20.90;99.90;;;;;;6218779;22;20023;-83
2022/09/15 10:11:57;;;;;;;3.70;1.00;;;21.40;99.50;;;;;;6218670;22;20102;-83
2022/09/15 10:14:30;;;;;;;2.58;1.00;;;21.00;99.30;;;;;;6218614;22;20072;-85
2022/09/15 10:17:18;;;;;;;2.92;1.08;;;21.00;99.50;;;;;;6219514;22;20019;-84
2022/09/15 10:19:53;;;;;;;3.13;0.90;;;20.80;99.30;;;;;;6246097;22;20019;-87
2022/09/15 10:22:34;;;;;;;4.10;1.00;;;20.70;99.40;;;;;;6244324;22;20447;-83
2022/09/15 10:25:25;;;;;;;5.18;1.20;;;20.50;99.40;;;;;;6218355;22;20098;-85
2022/09/15 10:28:09;;;;;;;5.22;1.02;;;20.50;99.70;;;;;;6241961;22;20016;-86
2022/09/15 10:30:36;;;;;;;5.35;1.08;;;20.50;99.90;;;;;;6219419;22;20023;-85
2022/09/15 10:33:24;;;;;;;5.18;1.20;;;20.40;99.90;;;;;;6194864;22;20024;-85
2022/09/15 10:35:56;;;;;;;4.32;1.15;;;20.30;99.90;;;;;;6220033;22;20068;-85
2022/09/15 10:38:55;;;;;;;3.72;1.00;;;20.20;99.90;;;;;;6219829;22;20086;-87
2022/09/15 10:45:02;;;;;;;2.22;0.80;;;19.40;99.90;;;;;;6227760;22;20089;-86
2022/09/15 10:48:02;;;;;;;5.32;1.15;;;19.00;99.90;;;;;;6216260;22;20016;-87
2022/09/15 10:50:43;;;;;;;3.53;0.90;;;19.50;99.90;;;;;;6243542;22;20698;-88
2022/09/15 10:53:50;;;;;;;3.92;0.82;;;19.50;99.90;;;;;;6222783;22;20016;-91
2022/09/15 10:57:02;;;;;;;5.00;0.88;;;19.60;99.90;;;;;;6244939;22;20039;-88
2022/09/15 11:00:41;;;;;;;3.35;0.88;;;20.30;99.80;;;;;;6180417;23;20596;-89
2022/09/15 11:04:01;;;;;;;;;;;;;;;;;;;;;
2022/09/15 11:10:06;;;;;;;;;;;21.70;96.80;;;;;;6229064;22;19972;-86
2022/09/15 11:13:17;;;;;;;2.40;0.73;;;22.30;95.50;;;;;;6200870;22;20491;-86
2022/09/15 11:15:49;;;;;;;2.35;0.80;;;22.10;95.60;;;;;;6172673;22;20016;-82
2022/09/15 11:18:27;;;;;;;2.78;0.77;;;22.50;95.70;;;;;;6215252;22;20019;-82
2022/09/15 11:21:02;;;;;;;1.88;0.60;;;22.80;94.90;;;;;;6216308;22;20019;-82
2022/09/15 11:23:46;;;;;;;2.15;0.95;;;23.10;94.60;;;;;;6244372;22;20098;-82
2022/09/15 11:26:19;;;;;;;4.70;0.82;;;23.00;93.50;;;;;;6219584;22;20016;-83
2022/09/15 11:28:58;;;;;;;5.35;0.77;;;22.80;93.90;;;;;;6219704;22;20030;-84
2022/09/15 11:31:33;;;;;;;5.95;0.93;;;22.40;94.00;;;;;;6219083;22;20075;-83
2022/09/15 11:34:06;;;;;;;4.63;1.15;;;21.90;95.00;;;;;;6245444;22;20016;-84
2022/09/15 11:36:52;;;;;;;3.83;1.02;;;21.70;95.90;;;;;;6244867;22;20016;-83
2022/09/15 11:39:27;;;;;;;6.45;1.45;;;21.50;96.30;;;;;;6218899;22;20400;-83
2022/09/15 11:42:25;;;;;;;1.90;0.90;;;21.40;96.70;;;;;;6245344;22;20342;-83
2022/09/15 11:44:52;;;;;;;6.38;1.08;;;21.20;96.70;;;;;;6221122;22;20134;-83
2022/09/15 11:47:29;;;;;;;2.35;0.80;;;21.00;96.80;;;;;;6219236;22;20031;-83
2022/09/15 11:50:00;;;;;;;3.10;0.77;;;20.90;96.20;;;;;;6245213;22;20019;-83
2022/09/15 11:53:20;;;;;;;2.58;0.80;;;20.80;95.80;;;;;;6219443;22;20015;-83
2022/09/15 11:55:59;;;;;;;2.17;0.70;;;20.70;95.70;;;;;;6099106;23;20026;-83
2022/09/15 11:59:01;;;;;;;3.33;0.77;;;20.60;95.90;;;;;;6097837;23;20021;-84
2022/09/15 12:01:47;;;;;;;2.90;0.75;;;20.90;95.90;;;;;;6218597;22;20019;-83
2022/09/15 12:04:30;;;;;;;2.25;0.90;;;20.90;96.00;;;;;;6275443;22;20026;-83
2022/09/15 12:07:07;;;;;;;1.20;0.60;;;20.90;96.00;;;;;;6250121;22;20385;-83
2022/09/15 12:09:33;;;;;;;3.03;0.90;;;20.90;96.00;;;;;;6274388;22;20023;-83
2022/09/15 12:12:06;;;;;;;3.47;0.90;;;20.70;96.10;;;;;;6249892;22;20022;-84
2022/09/15 12:14:40;;;;;;;3.60;0.90;;;20.60;96.90;;;;;;6249803;22;20012;-84
2022/09/15 12:17:14;;;;;;;4.50;1.05;;;20.40;99.20;;;;;;6249792;22;20055;-84
2022/09/15 12:19:56;;;;;;;5.88;1.05;;;20.10;99.90;;;;;;6275206;22;20049;-84
2022/09/15 12:22:48;;;;;;;2.90;0.90;;;20.10;99.90;;;;;;6249471;22;20066;-83
2022/09/15 12:25:18;;;;;;;4.38;1.10;;;20.00;99.90;;;;;;6249958;22;20077;-84
2022/09/15 12:28:22;;;;;;;4.05;1.00;;;19.80;99.90;;;;;;6249860;22;20077;-84
2022/09/15 12:31:33;;;;;;;5.28;1.00;;;19.50;99.90;;;;;;6249132;22;20090;-83
2022/09/15 12:34:29;;;;;;;4.78;1.20;;;19.30;99.90;;;;;;6250314;22;20338;-83
2022/09/15 12:37:10;;;;;;;5.65;1.38;;;19.00;99.90;;;;;;6249564;22;20025;-84
2022/09/15 12:39:48;;;;;;;3.80;1.30;;;18.90;99.90;;;;;;6249732;22;20022;-84
2022/09/15 12:42:27;;;;;;;4.40;1.20;;;18.80;99.90;;;;;;6274567;22;20019;-84
2022/09/15 12:45:22;;;;;;;5.00;1.15;;;18.80;99.90;;;;;;6250085;22;20015;-84
2022/09/15 12:47:53;;;;;;;4.88;0.90;;;19.00;99.90;;;;;;6249363;22;20015;-83
2022/09/15 12:50:19;;;;;;;2.95;1.08;;;19.20;99.90;;;;;;6275856;22;20015;-84
2022/09/15 12:52:59;;;;;;;4.57;1.15;;;19.50;99.90;;;;;;6251390;22;20022;-84
2022/09/15 12:55:31;;;;;;;4.43;1.13;;;19.80;99.90;;;;;;6251252;22;20038;-83
2022/09/15 12:58:02;;;;;;;5.68;1.17;;;19.80;99.90;;;;;;6251851;22;20350;-83
2022/09/15 13:00:31;;;;;;;6.28;1.10;;;19.80;99.90;;;;;;6243997;22;20019;-84
2022/09/15 13:02:57;;;;;;;7.80;1.58;;;19.80;99.90;;;;;;6221622;22;20031;-84
2022/09/15 13:05:41;;;;;;;3.13;0.90;;;19.80;99.90;;;;;;6220854;22;20102;-85
2022/09/15 13:08:30;;;;;;;7.18;1.27;;;19.90;99.90;;;;;;6246241;22;20082;-83
2022/09/15 13:11:03;;;;;;;6.22;1.25;;;20.50;99.90;;;;;;6245439;22;20015;-84
2022/09/15 13:13:46;;;;;;;3.92;1.10;;;20.40;99.90;;;;;;6220620;22;20022;-83
2022/09/15 13:16:17;;;;;;;4.05;1.55;;;20.40;99.90;;;;;;6246741;22;20019;-83
2022/09/15 13:18:44;;;;;;;4.07;1.08;;;20.40;99.90;;;;;;6220570;22;20271;-83
2022/09/15 13:21:14;;;;;;;4.10;1.17;;;20.20;99.90;;;;;;6221359;22;20016;-83
2022/09/15 13:23:42;;;;;;;5.10;1.65;;;20.00;99.90;;;;;;6220896;22;20461;-82
2022/09/15 13:26:14;;;;;;;7.45;1.55;;;19.60;99.90;;;;;;6221305;22;20473;-84
2022/09/15 13:28:40;;;;;;;7.70;1.27;;;19.30;99.90;;;;;;6244574;22;20553;-84
2022/09/15 13:31:33;;;;;;;3.35;0.90;;;19.10;99.90;;;;;;6193156;22;20023;-82
2022/09/15 13:34:22;;;;;;;3.83;1.20;;;19.10;99.90;;;;;;6245434;22;20020;-90
2022/09/15 13:36:48;;;;;;;6.10;1.15;;;19.20;99.90;;;;;;6223144;22;20054;-88
2022/09/15 13:39:41;;;;;;;2.25;0.80;;;19.10;99.90;;;;;;6247512;22;20020;-88
2022/09/15 13:42:22;;;;;;;1.90;0.80;;;19.20;99.90;;;;;;6222181;22;20023;-89
2022/09/15 13:45:07;;;;;;;5.68;1.20;;;19.20;99.90;;;;;;6221963;22;20030;-90
2022/09/15 13:47:47;;;;;;;4.65;1.00;;;19.80;99.90;;;;;;6221888;22;20016;-89
2022/09/15 13:50:28;;;;;;;5.07;1.15;;;19.90;99.90;;;;;;6222581;22;20022;-88